Time,TemperatureF,DewpointF,PressureIn,WindDirection,WindDirectionDegrees,WindSpeedMPH,WindSpeedGustMPH,Humidity,HourlyPrecipIn,Conditions,Clouds,dailyrainin,SoftwareType,DateUTC
2013-06-15 00:00:00,64.6,54.0,29.99,SSE,159,14.0,17.5,68,0.00,,,0.00,SSEC-RIG,2013-06-15 05:00:00,
2013-06-15 00:05:00,64.4,53.8,29.99,SSE,159,14.6,17.7,68,0.00,,,0.00,SSEC-RIG,2013-06-15 05:05:00,
2013-06-15 00:10:00,64.2,53.7,29.99,SSE,161,12.1,-999.0,68,0.00,,,0.00,SSEC-RIG,2013-06-15 05:10:00,
2013-06-15 00:20:00,64.0,53.3,29.99,SSE,162,13.0,17.3,67,0.00,,,0.00,SSEC-RIG,2013-06-15 05:20:00,
2013-06-15 00:30:00,63.7,52.0,30.00,SSE,158,13.6,16.8,65,0.00,,,0.00,SSEC-RIG,2013-06-15 05:30:00,
2013-06-15 00:35:00,63.7,52.0,30.00,SSE,159,12.2,16.3,65,0.00,,,0.00,SSEC-RIG,2013-06-15 05:35:00,
2013-06-15 00:40:00,63.6,51.5,30.00,SSE,161,13.1,16.0,64,0.00,,,0.00,SSEC-RIG,2013-06-15 05:40:00,
2013-06-15 00:45:00,63.5,51.0,30.00,SSE,167,13.3,18.2,63,0.00,,,0.00,SSEC-RIG,2013-06-15 05:45:00,
2013-06-15 00:50:00,63.4,50.6,30.01,SSE,164,12.8,16.8,62,0.00,,,0.00,SSEC-RIG,2013-06-15 05:50:00,
2013-06-15 00:55:00,63.3,50.4,30.01,SSE,162,12.9,16.8,62,0.00,,,0.00,SSEC-RIG,2013-06-15 05:55:00,
2013-06-15 01:00:00,63.2,50.2,30.01,SSE,163,10.8,-999.0,62,0.00,,,0.00,SSEC-RIG,2013-06-15 06:00:00,
2013-06-15 01:05:00,63.1,50.2,30.01,SSE,165,11.7,-999.0,62,0.00,,,0.00,SSEC-RIG,2013-06-15 06:05:00,
2013-06-15 01:10:00,63.1,50.3,30.01,South,174,11.2,-999.0,62,0.00,,,0.00,SSEC-RIG,2013-06-15 06:10:00,
2013-06-15 01:15:00,63.0,50.3,30.01,SSE,168,10.3,-999.0,62,0.00,,,0.00,SSEC-RIG,2013-06-15 06:15:00,
2013-06-15 01:20:00,62.9,50.3,30.01,South,170,11.2,-999.0,62,0.00,,,0.00,SSEC-RIG,2013-06-15 06:20:00,
2013-06-15 01:25:00,62.8,50.4,30.00,SSE,168,7.9,-999.0,63,0.00,,,0.00,SSEC-RIG,2013-06-15 06:25:00,
2013-06-15 01:30:00,62.8,50.6,30.00,South,174,9.1,-999.0,63,0.00,,,0.00,SSEC-RIG,2013-06-15 06:30:00,
2013-06-15 01:35:00,62.5,50.6,30.00,South,172,10.3,-999.0,64,0.00,,,0.00,SSEC-RIG,2013-06-15 06:35:00,
2013-06-15 01:40:00,62.5,50.7,29.99,South,169,9.8,-999.0,64,0.00,,,0.00,SSEC-RIG,2013-06-15 06:40:00,
2013-06-15 01:45:00,62.6,51.3,29.99,SSE,155,8.2,-999.0,66,0.00,,,0.00,SSEC-RIG,2013-06-15 06:45:00,
2013-06-15 01:50:00,62.7,51.8,29.99,SSE,150,8.8,-999.0,67,0.00,,,0.00,SSEC-RIG,2013-06-15 06:50:00,
2013-06-15 01:55:00,62.6,51.5,29.99,SSE,150,9.1,-999.0,66,0.00,,,0.00,SSEC-RIG,2013-06-15 06:55:00,
2013-06-15 02:00:00,62.3,50.8,29.99,SSE,160,10.7,-999.0,65,0.00,,,0.00,SSEC-RIG,2013-06-15 07:00:00,
2013-06-15 02:05:00,62.0,51.0,29.98,SSE,159,10.8,-999.0,66,0.00,,,0.00,SSEC-RIG,2013-06-15 07:05:00,
2013-06-15 02:10:00,62.2,52.2,29.98,SSE,155,8.3,-999.0,69,0.00,,,0.00,SSEC-RIG,2013-06-15 07:10:00,
2013-06-15 02:15:00,62.2,51.8,29.99,SSE,163,8.0,-999.0,68,0.00,,,0.00,SSEC-RIG,2013-06-15 07:15:00,
2013-06-15 02:20:00,62.3,51.2,30.00,SSE,154,6.8,-999.0,66,0.00,,,0.00,SSEC-RIG,2013-06-15 07:20:00,
2013-06-15 02:25:00,62.6,52.1,30.01,SE,132,4.1,-999.0,67,0.00,,,0.00,SSEC-RIG,2013-06-15 07:25:00,
2013-06-15 02:30:00,62.9,51.7,30.02,East,90,4.9,-999.0,66,0.00,,,0.00,SSEC-RIG,2013-06-15 07:30:00,
2013-06-15 02:35:00,63.3,52.2,30.03,ESE,117,3.2,-999.0,66,0.00,,,0.00,SSEC-RIG,2013-06-15 07:35:00,
2013-06-15 02:40:00,63.3,51.8,30.04,SE,144,2.5,-999.0,65,0.00,,,0.00,SSEC-RIG,2013-06-15 07:40:00,
2013-06-15 02:45:00,63.1,51.2,30.05,WSW,245,1.2,-999.0,64,0.00,,,0.00,SSEC-RIG,2013-06-15 07:45:00,
2013-06-15 02:50:00,63.1,51.0,30.05,SSE,164,2.0,-999.0,64,0.00,,,0.00,SSEC-RIG,2013-06-15 07:50:00,
2013-06-15 02:55:00,63.0,50.7,30.05,South,178,3.0,-999.0,63,0.00,,,0.00,SSEC-RIG,2013-06-15 07:55:00,
2013-06-15 03:00:00,62.8,50.6,30.04,SSE,168,5.3,-999.0,63,0.00,,,0.00,SSEC-RIG,2013-06-15 08:00:00,
2013-06-15 03:05:00,62.7,50.4,30.04,SSE,159,7.8,-999.0,63,0.00,,,0.00,SSEC-RIG,2013-06-15 08:05:00,
2013-06-15 03:10:00,62.7,50.1,30.03,SSE,156,8.5,-999.0,62,0.00,,,0.00,SSEC-RIG,2013-06-15 08:10:00,
2013-06-15 03:15:00,63.0,50.9,30.03,SE,142,9.0,-999.0,64,0.00,,,0.00,SSEC-RIG,2013-06-15 08:15:00,
2013-06-15 03:20:00,62.9,50.6,30.03,SSE,163,7.4,-999.0,63,0.00,,,0.00,SSEC-RIG,2013-06-15 08:20:00,
2013-06-15 03:25:00,62.5,51.0,30.03,SSE,157,9.1,-999.0,65,0.00,,,0.00,SSEC-RIG,2013-06-15 08:25:00,
2013-06-15 03:30:00,61.8,50.8,30.03,SSE,164,10.6,-999.0,66,0.00,,,0.00,SSEC-RIG,2013-06-15 08:30:00,
2013-06-15 03:35:00,60.9,51.4,30.03,SSE,161,10.3,-999.0,70,0.01,,,0.01,SSEC-RIG,2013-06-15 08:35:00,
2013-06-15 03:40:00,60.2,51.9,30.03,SSE,162,11.1,-999.0,73,0.02,,,0.03,SSEC-RIG,2013-06-15 08:40:00,
2013-06-15 03:45:00,59.5,52.4,30.02,SSE,165,11.3,-999.0,76,0.02,,,0.05,SSEC-RIG,2013-06-15 08:45:00,
2013-06-15 03:55:00,59.8,55.3,30.02,SE,138,10.1,-999.0,84,0.01,,,0.08,SSEC-RIG,2013-06-15 08:55:00,
2013-06-15 04:00:00,59.7,54.9,30.02,SE,138,10.8,-999.0,83,0.00,,,0.08,SSEC-RIG,2013-06-15 09:00:00,
2013-06-15 04:05:00,60.2,55.7,30.02,SE,136,10.4,-999.0,84,0.00,,,0.08,SSEC-RIG,2013-06-15 09:05:00,
2013-06-15 04:10:00,59.8,55.4,30.01,SE,130,11.2,-999.0,84,0.01,,,0.09,SSEC-RIG,2013-06-15 09:10:00,
2013-06-15 04:15:00,59.9,55.3,30.01,SE,129,11.5,-999.0,84,0.00,,,0.09,SSEC-RIG,2013-06-15 09:15:00,
2013-06-15 04:20:00,59.9,55.8,30.01,SE,124,11.2,-999.0,85,0.00,,,0.09,SSEC-RIG,2013-06-15 09:20:00,
2013-06-15 04:25:00,60.2,56.4,30.01,SE,132,11.0,-999.0,86,0.00,,,0.09,SSEC-RIG,2013-06-15 09:25:00,
2013-06-15 04:30:00,60.3,56.9,30.01,SE,128,10.2,-999.0,88,0.00,,,0.09,SSEC-RIG,2013-06-15 09:30:00,
2013-06-15 04:35:00,59.7,56.4,30.01,SE,129,10.5,-999.0,88,0.00,,,0.09,SSEC-RIG,2013-06-15 09:35:00,
2013-06-15 04:40:00,59.4,56.4,30.00,SE,125,11.6,-999.0,89,0.00,,,0.09,SSEC-RIG,2013-06-15 09:40:00,
2013-06-15 04:45:00,59.8,57.2,30.00,ESE,123,10.2,-999.0,90,0.00,,,0.09,SSEC-RIG,2013-06-15 09:45:00,
2013-06-15 04:50:00,59.6,56.3,30.00,ESE,123,10.9,-999.0,88,0.00,,,0.09,SSEC-RIG,2013-06-15 09:50:00,
2013-06-15 04:55:00,59.9,56.8,30.01,ESE,119,10.0,-999.0,88,0.00,,,0.09,SSEC-RIG,2013-06-15 09:55:00,
2013-06-15 05:00:00,59.7,55.9,30.01,ESE,116,11.3,-999.0,86,0.00,,,0.09,SSEC-RIG,2013-06-15 10:00:00,
2013-06-15 05:10:00,59.2,56.3,30.01,SE,141,9.7,-999.0,89,0.00,,,0.09,SSEC-RIG,2013-06-15 10:10:00,
2013-06-15 05:15:00,58.5,55.8,30.01,SE,130,10.1,-999.0,90,0.00,,,0.09,SSEC-RIG,2013-06-15 10:15:00,
2013-06-15 05:20:00,58.5,56.5,30.01,SE,125,9.9,-999.0,92,0.00,,,0.09,SSEC-RIG,2013-06-15 10:20:00,
2013-06-15 05:25:00,58.5,56.7,30.01,SE,125,7.8,-999.0,93,0.00,,,0.09,SSEC-RIG,2013-06-15 10:25:00,
2013-06-15 05:30:00,58.7,57.3,30.01,SE,137,7.1,-999.0,94,0.01,,,0.10,SSEC-RIG,2013-06-15 10:30:00,
2013-06-15 05:35:00,58.4,57.2,30.01,SE,141,8.9,-999.0,95,0.00,,,0.10,SSEC-RIG,2013-06-15 10:35:00,
2013-06-15 05:40:00,58.7,57.7,30.00,SE,134,8.6,-999.0,95,0.00,,,0.10,SSEC-RIG,2013-06-15 10:40:00,
2013-06-15 05:50:00,58.1,57.1,29.99,SE,130,10.0,-999.0,95,0.00,,,0.10,SSEC-RIG,2013-06-15 10:50:00,
2013-06-15 06:00:00,58.5,57.8,29.99,SE,138,9.9,-999.0,96,0.00,,,0.10,SSEC-RIG,2013-06-15 11:00:00,
2013-06-15 06:05:00,58.0,57.3,29.99,SSE,153,9.6,-999.0,96,0.00,,,0.10,SSEC-RIG,2013-06-15 11:05:00,
2013-06-15 06:10:00,58.0,57.2,29.99,SSE,159,8.8,-999.0,96,0.00,,,0.10,SSEC-RIG,2013-06-15 11:10:00,
2013-06-15 06:15:00,58.3,57.7,29.98,SSE,147,10.3,-999.0,97,0.00,,,0.10,SSEC-RIG,2013-06-15 11:15:00,
2013-06-15 06:25:00,58.1,57.6,29.97,SE,145,12.6,-999.0,97,0.00,,,0.10,SSEC-RIG,2013-06-15 11:25:00,
2013-06-15 06:30:00,58.6,58.1,29.97,SSE,154,11.0,16.4,97,0.00,,,0.10,SSEC-RIG,2013-06-15 11:30:00,
2013-06-15 06:35:00,58.6,57.9,29.96,SSE,158,13.0,19.0,97,0.00,,,0.10,SSEC-RIG,2013-06-15 11:35:00,
2013-06-15 06:40:00,58.5,57.3,29.96,SSE,159,14.7,18.6,95,0.00,,,0.10,SSEC-RIG,2013-06-15 11:40:00,
2013-06-15 06:50:00,58.9,56.7,29.95,SSE,165,16.0,19.2,91,0.00,,,0.10,SSEC-RIG,2013-06-15 11:50:00,
2013-06-15 06:55:00,58.9,56.6,29.95,South,171,14.6,17.9,91,0.00,,,0.10,SSEC-RIG,2013-06-15 11:55:00,
2013-06-15 07:00:00,58.9,56.7,29.95,South,173,12.4,18.9,92,0.00,,,0.10,SSEC-RIG,2013-06-15 12:00:00,
2013-06-15 07:05:00,58.9,56.8,29.95,South,173,10.9,-999.0,92,0.00,,,0.10,SSEC-RIG,2013-06-15 12:05:00,
2013-06-15 07:10:00,58.9,56.8,29.95,South,179,10.2,-999.0,92,0.00,,,0.10,SSEC-RIG,2013-06-15 12:10:00,
2013-06-15 07:15:00,59.0,56.9,29.95,South,181,11.2,-999.0,92,0.00,,,0.10,SSEC-RIG,2013-06-15 12:15:00,
2013-06-15 07:20:00,59.1,57.0,29.94,South,184,11.2,-999.0,92,0.00,,,0.10,SSEC-RIG,2013-06-15 12:20:00,
2013-06-15 07:25:00,59.2,57.1,29.95,South,179,10.1,-999.0,92,0.00,,,0.10,SSEC-RIG,2013-06-15 12:25:00,
2013-06-15 07:30:00,59.3,57.3,29.95,South,176,7.8,-999.0,92,0.00,,,0.10,SSEC-RIG,2013-06-15 12:30:00,
2013-06-15 07:35:00,59.4,57.4,29.95,South,176,9.8,-999.0,92,0.00,,,0.10,SSEC-RIG,2013-06-15 12:35:00,
2013-06-15 07:40:00,59.6,57.4,29.95,South,183,8.6,-999.0,91,0.00,,,0.10,SSEC-RIG,2013-06-15 12:40:00,
2013-06-15 07:45:00,59.7,57.6,29.95,South,176,8.9,-999.0,92,0.00,,,0.10,SSEC-RIG,2013-06-15 12:45:00,
2013-06-15 07:50:00,59.8,57.6,29.95,SSE,168,10.7,-999.0,91,0.00,,,0.10,SSEC-RIG,2013-06-15 12:50:00,
2013-06-15 07:55:00,59.9,57.7,29.95,SSE,160,9.6,-999.0,91,0.00,,,0.10,SSEC-RIG,2013-06-15 12:55:00,
2013-06-15 08:00:00,60.4,58.4,29.95,SSE,154,8.7,-999.0,92,0.00,,,0.10,SSEC-RIG,2013-06-15 13:00:00,
2013-06-15 08:05:00,60.8,59.0,29.95,SE,136,6.6,-999.0,93,0.00,,,0.10,SSEC-RIG,2013-06-15 13:05:00,
2013-06-15 08:10:00,61.1,59.5,29.95,SE,146,7.6,-999.0,94,0.00,,,0.10,SSEC-RIG,2013-06-15 13:10:00,
2013-06-15 08:15:00,60.2,58.2,29.95,SSE,164,9.8,-999.0,92,0.00,,,0.10,SSEC-RIG,2013-06-15 13:15:00,
2013-06-15 08:20:00,60.1,58.2,29.94,South,170,12.0,-999.0,92,0.00,,,0.10,SSEC-RIG,2013-06-15 13:20:00,
2013-06-15 08:25:00,60.2,58.2,29.94,South,173,12.3,-999.0,92,0.00,,,0.10,SSEC-RIG,2013-06-15 13:25:00,
2013-06-15 08:30:00,60.4,58.4,29.95,South,185,8.4,-999.0,92,0.00,,,0.10,SSEC-RIG,2013-06-15 13:30:00,
2013-06-15 08:35:00,60.5,58.6,29.95,South,189,9.4,-999.0,92,0.00,,,0.10,SSEC-RIG,2013-06-15 13:35:00,
2013-06-15 08:40:00,60.7,58.6,29.95,South,191,11.1,-999.0,92,0.00,,,0.10,SSEC-RIG,2013-06-15 13:40:00,
2013-06-15 08:45:00,61.0,59.0,29.95,South,191,11.1,-999.0,92,0.00,,,0.10,SSEC-RIG,2013-06-15 13:45:00,
2013-06-15 08:50:00,61.2,59.3,29.95,SSW,196,10.1,-999.0,92,0.00,,,0.10,SSEC-RIG,2013-06-15 13:50:00,
2013-06-15 08:55:00,61.5,59.2,29.95,SSW,196,11.7,-999.0,91,0.00,,,0.10,SSEC-RIG,2013-06-15 13:55:00,
2013-06-15 09:00:00,62.0,59.1,29.95,SSW,195,13.4,17.7,89,0.00,,,0.10,SSEC-RIG,2013-06-15 14:00:00,
2013-06-15 09:05:00,62.2,58.8,29.95,SSW,195,14.3,17.6,87,0.00,,,0.10,SSEC-RIG,2013-06-15 14:05:00,
2013-06-15 09:10:00,62.5,58.8,29.94,SSW,196,13.6,18.1,87,0.00,,,0.10,SSEC-RIG,2013-06-15 14:10:00,
2013-06-15 09:20:00,63.3,59.5,29.95,SSW,201,6.6,-999.0,86,0.00,,,0.10,SSEC-RIG,2013-06-15 14:20:00,
2013-06-15 09:25:00,63.4,59.5,29.95,SSW,211,13.1,17.6,86,0.00,,,0.10,SSEC-RIG,2013-06-15 14:25:00,
2013-06-15 09:30:00,63.6,59.4,29.95,SSW,206,12.9,17.0,85,0.00,,,0.10,SSEC-RIG,2013-06-15 14:30:00,
2013-06-15 09:35:00,63.9,59.6,29.95,SSW,201,11.3,18.1,85,0.00,,,0.10,SSEC-RIG,2013-06-15 14:35:00,
2013-06-15 09:40:00,64.1,59.1,29.94,SSW,201,15.4,19.8,83,0.00,,,0.10,SSEC-RIG,2013-06-15 14:40:00,
2013-06-15 09:45:00,64.3,59.6,29.94,SSW,194,11.2,-999.0,84,0.00,,,0.10,SSEC-RIG,2013-06-15 14:45:00,
2013-06-15 09:55:00,64.5,59.3,29.94,SSW,200,11.7,-999.0,82,0.00,,,0.10,SSEC-RIG,2013-06-15 14:55:00,
2013-06-15 10:00:00,64.5,59.5,29.94,SSW,211,13.7,17.7,83,0.00,,,0.10,SSEC-RIG,2013-06-15 15:00:00,
2013-06-15 10:05:00,64.5,59.1,29.94,SSW,209,15.2,19.5,82,0.00,,,0.10,SSEC-RIG,2013-06-15 15:05:00,
2013-06-15 10:10:00,64.7,59.3,29.94,SSW,201,12.0,-999.0,82,0.00,,,0.10,SSEC-RIG,2013-06-15 15:10:00,
2013-06-15 10:15:00,65.1,59.7,29.93,SSW,201,9.9,-999.0,82,0.00,,,0.10,SSEC-RIG,2013-06-15 15:15:00,
2013-06-15 10:20:00,65.3,59.9,29.93,SSW,212,11.2,16.5,82,0.00,,,0.10,SSEC-RIG,2013-06-15 15:20:00,
2013-06-15 10:25:00,65.5,60.1,29.93,SSW,199,11.9,-999.0,82,0.00,,,0.10,SSEC-RIG,2013-06-15 15:25:00,
2013-06-15 10:30:00,65.5,59.9,29.93,SSW,208,14.1,17.7,81,0.00,,,0.10,SSEC-RIG,2013-06-15 15:30:00,
2013-06-15 10:35:00,65.6,60.2,29.93,SSW,207,10.7,16.5,82,0.00,,,0.10,SSEC-RIG,2013-06-15 15:35:00,
2013-06-15 10:40:00,65.7,60.3,29.93,SW,217,11.6,-999.0,82,0.00,,,0.10,SSEC-RIG,2013-06-15 15:40:00,
2013-06-15 10:45:00,66.1,60.2,29.94,SW,230,13.9,17.8,80,0.00,,,0.10,SSEC-RIG,2013-06-15 15:45:00,
2013-06-15 10:50:00,66.7,60.6,29.94,WSW,241,7.9,-999.0,80,0.00,,,0.10,SSEC-RIG,2013-06-15 15:50:00,
2013-06-15 10:55:00,67.7,60.8,29.94,WSW,242,8.2,-999.0,78,0.00,,,0.10,SSEC-RIG,2013-06-15 15:55:00,
2013-06-15 11:00:00,68.3,61.2,29.95,SW,236,8.9,-999.0,77,0.00,,,0.10,SSEC-RIG,2013-06-15 16:00:00,
2013-06-15 11:05:00,69.1,61.5,29.95,SW,228,8.7,17.5,76,0.00,,,0.10,SSEC-RIG,2013-06-15 16:05:00,
2013-06-15 11:10:00,69.6,61.5,29.94,WSW,243,11.3,18.4,75,0.00,,,0.10,SSEC-RIG,2013-06-15 16:10:00,
2013-06-15 11:15:00,69.4,61.5,29.94,SW,224,13.3,19.7,75,0.00,,,0.10,SSEC-RIG,2013-06-15 16:15:00,
2013-06-15 11:20:00,69.4,61.7,29.94,SW,231,12.8,18.5,76,0.00,,,0.10,SSEC-RIG,2013-06-15 16:20:00,
2013-06-15 11:25:00,69.9,62.1,29.94,SSW,211,9.1,16.3,75,0.00,,,0.10,SSEC-RIG,2013-06-15 16:25:00,
2013-06-15 11:30:00,70.3,61.9,29.94,SW,218,15.0,19.3,74,0.00,,,0.10,SSEC-RIG,2013-06-15 16:30:00,
2013-06-15 11:35:00,70.4,61.9,29.94,SW,215,15.6,19.9,73,0.00,,,0.10,SSEC-RIG,2013-06-15 16:35:00,
2013-06-15 11:40:00,71.0,62.3,29.94,SSW,211,13.8,17.5,73,0.00,,,0.10,SSEC-RIG,2013-06-15 16:40:00,
2013-06-15 11:45:00,71.6,62.5,29.94,SW,215,15.6,21.8,72,0.00,,,0.10,SSEC-RIG,2013-06-15 16:45:00,
2013-06-15 11:50:00,71.8,62.6,29.94,SW,220,13.5,20.8,72,0.00,,,0.10,SSEC-RIG,2013-06-15 16:50:00,
2013-06-15 11:55:00,72.2,62.8,29.94,SSW,212,14.5,20.5,71,0.00,,,0.10,SSEC-RIG,2013-06-15 16:55:00,
2013-06-15 12:00:00,72.4,62.6,29.94,SW,233,12.9,18.3,71,0.00,,,0.10,SSEC-RIG,2013-06-15 17:00:00,
2013-06-15 12:05:00,72.1,62.1,29.93,SW,229,16.2,21.3,70,0.00,,,0.10,SSEC-RIG,2013-06-15 17:05:00,
2013-06-15 12:10:00,72.2,62.3,29.93,SW,214,13.7,17.5,70,0.00,,,0.10,SSEC-RIG,2013-06-15 17:10:00,
2013-06-15 12:15:00,72.4,62.3,29.93,SW,218,13.6,18.5,70,0.00,,,0.10,SSEC-RIG,2013-06-15 17:15:00,
2013-06-15 12:20:00,72.9,62.5,29.93,SW,222,9.7,-999.0,69,0.00,,,0.10,SSEC-RIG,2013-06-15 17:20:00,
2013-06-15 12:25:00,72.7,62.5,29.93,SW,214,13.0,17.5,69,0.00,,,0.10,SSEC-RIG,2013-06-15 17:25:00,
2013-06-15 12:30:00,72.6,62.8,29.94,SSW,208,10.3,-999.0,70,0.00,,,0.10,SSEC-RIG,2013-06-15 17:30:00,
2013-06-15 12:35:00,72.9,63.2,29.94,SW,214,10.2,-999.0,71,0.00,,,0.10,SSEC-RIG,2013-06-15 17:35:00,
2013-06-15 12:40:00,72.8,63.1,29.94,SW,219,12.0,-999.0,71,0.00,,,0.10,SSEC-RIG,2013-06-15 17:40:00,
2013-06-15 12:45:00,72.9,63.2,29.94,SW,224,9.6,-999.0,71,0.00,,,0.10,SSEC-RIG,2013-06-15 17:45:00,
2013-06-15 12:50:00,73.0,63.2,29.95,SW,221,8.8,-999.0,71,0.00,,,0.10,SSEC-RIG,2013-06-15 17:50:00,
2013-06-15 12:55:00,73.0,63.5,29.95,SW,225,6.4,-999.0,71,0.00,,,0.10,SSEC-RIG,2013-06-15 17:55:00,
2013-06-15 13:00:00,73.2,63.8,29.95,SW,215,8.3,-999.0,71,0.00,,,0.10,SSEC-RIG,2013-06-15 18:00:00,
2013-06-15 13:05:00,73.2,63.7,29.95,SSW,206,6.8,-999.0,71,0.00,,,0.10,SSEC-RIG,2013-06-15 18:05:00,
2013-06-15 13:10:00,73.5,63.7,29.95,South,191,5.9,-999.0,71,0.00,,,0.10,SSEC-RIG,2013-06-15 18:10:00,
2013-06-15 13:15:00,74.3,63.7,29.95,South,181,3.7,-999.0,69,0.00,,,0.10,SSEC-RIG,2013-06-15 18:15:00,
2013-06-15 13:20:00,74.8,63.9,29.95,SSW,194,3.8,-999.0,68,0.00,,,0.10,SSEC-RIG,2013-06-15 18:20:00,
2013-06-15 13:25:00,74.1,63.6,29.95,SW,218,7.3,-999.0,69,0.00,,,0.10,SSEC-RIG,2013-06-15 18:25:00,
2013-06-15 13:30:00,73.9,63.7,29.95,SSW,212,5.9,-999.0,70,0.00,,,0.10,SSEC-RIG,2013-06-15 18:30:00,
2013-06-15 13:35:00,74.1,63.9,29.96,SSW,204,5.6,-999.0,69,0.00,,,0.10,SSEC-RIG,2013-06-15 18:35:00,
2013-06-15 13:40:00,74.4,64.1,29.95,SSW,200,6.3,-999.0,70,0.00,,,0.10,SSEC-RIG,2013-06-15 18:40:00,
2013-06-15 13:45:00,75.1,64.3,29.95,SSW,205,6.0,-999.0,68,0.00,,,0.10,SSEC-RIG,2013-06-15 18:45:00,
2013-06-15 13:50:00,75.0,64.2,29.95,SSW,212,7.3,-999.0,68,0.00,,,0.10,SSEC-RIG,2013-06-15 18:50:00,
2013-06-15 13:55:00,74.8,64.1,29.95,SSW,202,8.3,-999.0,68,0.00,,,0.10,SSEC-RIG,2013-06-15 18:55:00,
2013-06-15 14:00:00,75.2,64.5,29.95,SSW,206,6.8,-999.0,68,0.00,,,0.10,SSEC-RIG,2013-06-15 19:00:00,
2013-06-15 14:05:00,75.1,64.4,29.94,SSW,207,6.5,-999.0,68,0.00,,,0.10,SSEC-RIG,2013-06-15 19:05:00,
2013-06-15 14:10:00,75.4,64.6,29.94,SSW,196,6.1,-999.0,68,0.00,,,0.10,SSEC-RIG,2013-06-15 19:10:00,
2013-06-15 14:15:00,75.5,64.6,29.94,SSW,193,6.3,-999.0,68,0.00,,,0.10,SSEC-RIG,2013-06-15 19:15:00,
2013-06-15 14:20:00,75.9,64.5,29.94,SSW,198,7.3,-999.0,67,0.00,,,0.10,SSEC-RIG,2013-06-15 19:20:00,
2013-06-15 14:25:00,76.6,65.0,29.93,SSW,205,7.5,-999.0,67,0.00,,,0.10,SSEC-RIG,2013-06-15 19:25:00,
2013-06-15 14:30:00,76.1,64.9,29.93,SSW,212,9.2,-999.0,67,0.00,,,0.10,SSEC-RIG,2013-06-15 19:30:00,
2013-06-15 14:35:00,76.6,65.0,29.93,SW,221,8.1,-999.0,67,0.00,,,0.10,SSEC-RIG,2013-06-15 19:35:00,
2013-06-15 14:40:00,76.9,64.9,29.93,SW,215,6.6,-999.0,66,0.00,,,0.10,SSEC-RIG,2013-06-15 19:40:00,
2013-06-15 14:50:00,77.3,64.3,29.92,SW,216,10.6,-999.0,63,0.00,,,0.10,SSEC-RIG,2013-06-15 19:50:00,
2013-06-15 14:55:00,77.6,64.1,29.92,SW,217,5.1,-999.0,63,0.00,,,0.10,SSEC-RIG,2013-06-15 19:55:00,
2013-06-15 15:05:00,78.4,64.4,29.91,SW,225,6.4,-999.0,61,0.00,,,0.10,SSEC-RIG,2013-06-15 20:05:00,
2013-06-15 15:15:00,78.0,64.3,29.91,SSW,209,10.2,-999.0,62,0.00,,,0.10,SSEC-RIG,2013-06-15 20:15:00,
2013-06-15 15:20:00,78.1,63.8,29.91,SW,230,12.1,-999.0,61,0.00,,,0.10,SSEC-RIG,2013-06-15 20:20:00,
2013-06-15 15:25:00,77.7,63.8,29.91,SW,229,12.6,-999.0,62,0.00,,,0.10,SSEC-RIG,2013-06-15 20:25:00,
2013-06-15 15:30:00,78.1,64.1,29.90,SW,218,9.8,-999.0,61,0.00,,,0.10,SSEC-RIG,2013-06-15 20:30:00,
2013-06-15 15:35:00,78.0,64.1,29.90,SW,218,11.4,-999.0,61,0.00,,,0.10,SSEC-RIG,2013-06-15 20:35:00,
2013-06-15 15:40:00,78.2,64.1,29.89,SW,222,10.4,-999.0,61,0.00,,,0.10,SSEC-RIG,2013-06-15 20:40:00,
2013-06-15 15:45:00,78.5,64.4,29.89,SW,215,7.8,-999.0,61,0.00,,,0.10,SSEC-RIG,2013-06-15 20:45:00,
2013-06-15 15:50:00,78.5,64.8,29.89,SW,215,7.7,-999.0,62,0.00,,,0.10,SSEC-RIG,2013-06-15 20:50:00,
2013-06-15 15:55:00,78.2,64.4,29.88,SSW,206,11.2,-999.0,62,0.00,,,0.10,SSEC-RIG,2013-06-15 20:55:00,
2013-06-15 16:00:00,78.4,64.5,29.88,SW,214,9.8,-999.0,62,0.00,,,0.10,SSEC-RIG,2013-06-15 21:00:00,
2013-06-15 16:05:00,78.6,64.7,29.88,SW,219,10.7,-999.0,62,0.00,,,0.10,SSEC-RIG,2013-06-15 21:05:00,
2013-06-15 16:15:00,79.4,64.1,29.88,SSW,213,11.5,16.4,59,0.00,,,0.10,SSEC-RIG,2013-06-15 21:15:00,
2013-06-15 16:20:00,79.6,63.9,29.88,SW,229,9.4,-999.0,58,0.00,,,0.10,SSEC-RIG,2013-06-15 21:20:00,
2013-06-15 16:25:00,79.5,64.0,29.87,SW,216,11.0,-999.0,58,0.00,,,0.10,SSEC-RIG,2013-06-15 21:25:00,
2013-06-15 16:35:00,79.5,63.7,29.86,SSW,206,14.2,19.2,58,0.00,,,0.10,SSEC-RIG,2013-06-15 21:35:00,
2013-06-15 16:40:00,80.3,64.2,29.85,South,182,9.1,-999.0,57,0.00,,,0.10,SSEC-RIG,2013-06-15 21:40:00,
2013-06-15 16:45:00,79.7,63.8,29.84,SSE,168,12.2,-999.0,58,0.00,,,0.10,SSEC-RIG,2013-06-15 21:45:00,
2013-06-15 16:50:00,79.8,64.7,29.83,SSE,162,10.7,16.7,59,0.00,,,0.10,SSEC-RIG,2013-06-15 21:50:00,
2013-06-15 16:55:00,79.3,64.1,29.83,SSE,160,14.4,17.9,59,0.00,,,0.10,SSEC-RIG,2013-06-15 21:55:00,
2013-06-15 17:05:00,80.3,64.3,29.84,South,182,9.9,-999.0,57,0.00,,,0.10,SSEC-RIG,2013-06-15 22:05:00,
2013-06-15 17:10:00,80.7,64.4,29.84,South,185,10.8,18.7,57,0.00,,,0.10,SSEC-RIG,2013-06-15 22:10:00,
2013-06-15 17:15:00,80.2,63.9,29.84,South,187,12.5,17.2,57,0.00,,,0.10,SSEC-RIG,2013-06-15 22:15:00,
2013-06-15 17:20:00,79.7,64.2,29.84,SSW,209,13.7,19.8,58,0.00,,,0.10,SSEC-RIG,2013-06-15 22:20:00,
2013-06-15 17:25:00,79.3,64.2,29.84,SSW,199,15.8,20.9,59,0.00,,,0.10,SSEC-RIG,2013-06-15 22:25:00,
2013-06-15 17:30:00,79.3,64.6,29.84,SSW,208,12.1,19.4,60,0.00,,,0.10,SSEC-RIG,2013-06-15 22:30:00,
2013-06-15 17:35:00,79.1,64.9,29.84,SSW,208,13.9,19.9,61,0.00,,,0.10,SSEC-RIG,2013-06-15 22:35:00,
2013-06-15 17:40:00,79.1,65.0,29.84,SSW,199,14.4,20.3,61,0.00,,,0.10,SSEC-RIG,2013-06-15 22:40:00,
2013-06-15 17:45:00,79.1,65.1,29.83,SSW,200,13.5,19.6,61,0.00,,,0.10,SSEC-RIG,2013-06-15 22:45:00,
2013-06-15 17:50:00,79.1,65.3,29.82,SSW,196,11.0,17.0,62,0.00,,,0.10,SSEC-RIG,2013-06-15 22:50:00,
2013-06-15 17:55:00,79.0,65.4,29.82,SSW,197,10.2,17.0,62,0.00,,,0.10,SSEC-RIG,2013-06-15 22:55:00,
2013-06-15 18:00:00,78.9,65.7,29.81,South,185,12.1,-999.0,63,0.00,,,0.10,SSEC-RIG,2013-06-15 23:00:00,
2013-06-15 18:05:00,78.8,65.7,29.81,South,187,14.6,17.7,63,0.00,,,0.10,SSEC-RIG,2013-06-15 23:05:00,
2013-06-15 18:10:00,78.8,65.9,29.80,South,180,12.5,17.0,64,0.00,,,0.10,SSEC-RIG,2013-06-15 23:10:00,
2013-06-15 18:15:00,78.8,66.1,29.80,South,184,8.5,-999.0,64,0.00,,,0.10,SSEC-RIG,2013-06-15 23:15:00,
2013-06-15 18:20:00,78.8,65.9,29.81,SSW,192,9.8,-999.0,64,0.00,,,0.10,SSEC-RIG,2013-06-15 23:20:00,
2013-06-15 18:25:00,78.7,65.6,29.81,SSW,192,11.6,17.2,63,0.00,,,0.10,SSEC-RIG,2013-06-15 23:25:00,
2013-06-15 18:30:00,78.6,65.5,29.81,South,191,12.6,16.8,63,0.00,,,0.10,SSEC-RIG,2013-06-15 23:30:00,
2013-06-15 18:35:00,78.6,65.5,29.80,South,188,12.1,16.2,63,0.00,,,0.10,SSEC-RIG,2013-06-15 23:35:00,
2013-06-15 18:40:00,78.8,65.4,29.80,South,191,11.6,16.5,63,0.00,,,0.10,SSEC-RIG,2013-06-15 23:40:00,
2013-06-15 18:45:00,78.8,65.6,29.81,SSW,193,10.7,-999.0,63,0.00,,,0.10,SSEC-RIG,2013-06-15 23:45:00,
2013-06-15 18:50:00,78.6,65.8,29.81,SSW,203,8.9,-999.0,64,0.00,,,0.10,SSEC-RIG,2013-06-15 23:50:00,
2013-06-15 18:55:00,78.4,65.8,29.81,SSW,207,15.3,19.9,64,0.00,,,0.10,SSEC-RIG,2013-06-15 23:55:00,
2013-06-15 19:00:00,78.2,66.0,29.81,SSW,206,13.6,20.1,65,0.00,,,0.10,SSEC-RIG,2013-06-16 00:00:00,
2013-06-15 19:05:00,78.1,66.2,29.82,SSW,204,10.6,-999.0,66,0.00,,,0.00,SSEC-RIG,2013-06-16 00:05:00,
2013-06-15 19:10:00,78.0,66.4,29.82,SSW,206,9.5,-999.0,67,0.00,,,0.00,SSEC-RIG,2013-06-16 00:10:00,
2013-06-15 19:15:00,77.8,66.5,29.82,SW,214,11.8,-999.0,67,0.00,,,0.00,SSEC-RIG,2013-06-16 00:15:00,
2013-06-15 19:20:00,77.7,66.5,29.82,SW,219,10.5,-999.0,68,0.00,,,0.00,SSEC-RIG,2013-06-16 00:20:00,
2013-06-15 19:25:00,77.6,66.4,29.82,SW,214,14.1,19.3,68,0.00,,,0.00,SSEC-RIG,2013-06-16 00:25:00,
2013-06-15 19:30:00,77.4,66.4,29.82,SW,220,13.9,17.2,68,0.00,,,0.00,SSEC-RIG,2013-06-16 00:30:00,
2013-06-15 19:40:00,77.0,66.5,29.82,SW,215,11.4,-999.0,69,0.00,,,0.00,SSEC-RIG,2013-06-16 00:40:00,
2013-06-15 19:50:00,76.7,66.5,29.82,SW,230,12.6,18.0,70,0.00,,,0.00,SSEC-RIG,2013-06-16 00:50:00,
2013-06-15 19:55:00,76.6,66.4,29.82,SW,230,14.4,19.2,70,0.00,,,0.00,SSEC-RIG,2013-06-16 00:55:00,
2013-06-15 20:00:00,76.6,66.5,29.83,WSW,239,13.8,16.8,70,0.00,,,0.00,SSEC-RIG,2013-06-16 01:00:00,
2013-06-15 20:05:00,76.6,66.5,29.83,WSW,246,12.7,17.6,70,0.00,,,0.00,SSEC-RIG,2013-06-16 01:05:00,
2013-06-15 20:10:00,76.5,66.5,29.84,WSW,250,12.6,16.3,70,0.00,,,0.00,SSEC-RIG,2013-06-16 01:10:00,
2013-06-15 20:15:00,76.4,66.4,29.83,WSW,245,13.9,19.5,70,0.00,,,0.00,SSEC-RIG,2013-06-16 01:15:00,
2013-06-15 20:20:00,76.3,66.5,29.83,WSW,244,11.0,-999.0,71,0.00,,,0.00,SSEC-RIG,2013-06-16 01:20:00,
2013-06-15 20:25:00,76.2,66.4,29.83,WSW,241,11.5,16.8,71,0.00,,,0.00,SSEC-RIG,2013-06-16 01:25:00,
2013-06-15 20:30:00,76.1,66.5,29.83,WSW,253,13.0,18.5,71,0.00,,,0.00,SSEC-RIG,2013-06-16 01:30:00,
2013-06-15 20:35:00,76.0,66.5,29.83,WSW,251,15.3,21.0,71,0.00,,,0.00,SSEC-RIG,2013-06-16 01:35:00,
2013-06-15 20:40:00,75.9,66.6,29.83,WSW,243,13.6,20.1,72,0.00,,,0.00,SSEC-RIG,2013-06-16 01:40:00,
2013-06-15 20:45:00,75.8,66.7,29.82,WSW,243,17.3,21.4,72,0.00,,,0.00,SSEC-RIG,2013-06-16 01:45:00,
2013-06-15 20:50:00,75.7,66.7,29.83,WSW,254,14.3,20.3,73,0.00,,,0.00,SSEC-RIG,2013-06-16 01:50:00,
2013-06-15 20:55:00,75.6,66.8,29.83,WSW,257,16.0,21.4,73,0.00,,,0.00,SSEC-RIG,2013-06-16 01:55:00,
2013-06-15 21:00:00,75.5,66.9,29.83,WSW,257,13.7,20.0,74,0.00,,,0.00,SSEC-RIG,2013-06-16 02:00:00,
2013-06-15 21:05:00,75.5,66.9,29.83,West,259,14.8,22.1,74,0.00,,,0.00,SSEC-RIG,2013-06-16 02:05:00,
2013-06-15 21:10:00,75.3,67.0,29.82,WSW,249,15.3,21.7,74,0.00,,,0.00,SSEC-RIG,2013-06-16 02:10:00,
2013-06-15 21:15:00,75.1,67.1,29.83,WSW,249,12.2,16.4,75,0.00,,,0.00,SSEC-RIG,2013-06-16 02:15:00,
2013-06-15 21:20:00,75.0,67.2,29.83,WSW,253,14.1,18.1,76,0.00,,,0.00,SSEC-RIG,2013-06-16 02:20:00,
2013-06-15 21:25:00,75.0,67.2,29.83,WSW,247,11.7,-999.0,76,0.00,,,0.00,SSEC-RIG,2013-06-16 02:25:00,
2013-06-15 21:30:00,74.9,67.3,29.83,WSW,254,10.7,-999.0,76,0.00,,,0.00,SSEC-RIG,2013-06-16 02:30:00,
2013-06-15 21:35:00,74.8,67.3,29.83,WSW,248,12.2,-999.0,77,0.00,,,0.00,SSEC-RIG,2013-06-16 02:35:00,
2013-06-15 21:40:00,74.8,67.3,29.83,WSW,251,12.9,18.5,77,0.00,,,0.00,SSEC-RIG,2013-06-16 02:40:00,
2013-06-15 21:45:00,74.6,67.3,29.83,WSW,251,13.5,17.2,77,0.00,,,0.00,SSEC-RIG,2013-06-16 02:45:00,
2013-06-15 21:50:00,74.5,67.3,29.83,WSW,247,13.0,-999.0,77,0.00,,,0.00,SSEC-RIG,2013-06-16 02:50:00,
2013-06-15 21:55:00,74.5,67.4,29.84,WSW,244,12.8,16.9,78,0.00,,,0.00,SSEC-RIG,2013-06-16 02:55:00,
2013-06-15 22:00:00,74.4,67.4,29.84,WSW,244,12.3,17.0,78,0.00,,,0.00,SSEC-RIG,2013-06-16 03:00:00,
2013-06-15 22:05:00,74.4,67.4,29.84,WSW,246,14.5,18.5,78,0.00,,,0.00,SSEC-RIG,2013-06-16 03:05:00,
2013-06-15 22:15:00,74.3,67.6,29.84,WSW,250,13.8,18.3,79,0.00,,,0.00,SSEC-RIG,2013-06-16 03:15:00,
2013-06-15 22:20:00,74.2,67.6,29.85,WSW,252,13.3,16.8,79,0.00,,,0.00,SSEC-RIG,2013-06-16 03:20:00,
2013-06-15 22:25:00,74.1,67.7,29.85,West,261,11.5,-999.0,79,0.00,,,0.00,SSEC-RIG,2013-06-16 03:25:00,
2013-06-15 22:30:00,74.1,67.7,29.85,West,260,10.3,-999.0,80,0.00,,,0.00,SSEC-RIG,2013-06-16 03:30:00,
2013-06-15 22:35:00,74.0,67.8,29.85,WSW,257,11.7,17.1,80,0.00,,,0.00,SSEC-RIG,2013-06-16 03:35:00,
2013-06-15 22:40:00,73.9,67.8,29.85,WSW,256,14.5,19.1,81,0.00,,,0.00,SSEC-RIG,2013-06-16 03:40:00,
2013-06-15 22:45:00,73.7,67.9,29.85,WSW,258,13.1,16.4,81,0.00,,,0.00,SSEC-RIG,2013-06-16 03:45:00,
2013-06-15 22:50:00,73.5,68.0,29.85,WSW,257,12.7,17.2,82,0.00,,,0.00,SSEC-RIG,2013-06-16 03:50:00,
2013-06-15 23:00:00,73.1,68.2,29.85,West,271,10.8,-999.0,84,0.00,,,0.00,SSEC-RIG,2013-06-16 04:00:00,
2013-06-15 23:05:00,73.1,68.2,29.85,WNW,283,10.1,-999.0,84,0.00,,,0.00,SSEC-RIG,2013-06-16 04:05:00,
2013-06-15 23:10:00,73.2,68.2,29.85,WNW,290,10.7,-999.0,84,0.00,,,0.00,SSEC-RIG,2013-06-16 04:10:00,
2013-06-15 23:15:00,73.3,68.2,29.85,WNW,297,7.5,-999.0,83,0.00,,,0.00,SSEC-RIG,2013-06-16 04:15:00,
2013-06-15 23:20:00,73.3,68.1,29.86,WNW,299,8.2,-999.0,83,0.00,,,0.00,SSEC-RIG,2013-06-16 04:20:00,
2013-06-15 23:25:00,73.2,67.8,29.85,WNW,286,11.1,-999.0,82,0.00,,,0.00,SSEC-RIG,2013-06-16 04:25:00,
2013-06-15 23:30:00,73.1,67.7,29.85,WNW,283,12.0,-999.0,82,0.00,,,0.00,SSEC-RIG,2013-06-16 04:30:00,
2013-06-15 23:35:00,73.0,67.5,29.86,West,276,11.4,18.6,82,0.00,,,0.00,SSEC-RIG,2013-06-16 04:35:00,
2013-06-15 23:40:00,72.9,67.6,29.86,WNW,285,10.1,-999.0,82,0.00,,,0.00,SSEC-RIG,2013-06-16 04:40:00,
2013-06-15 23:45:00,72.8,67.6,29.86,WNW,284,9.7,-999.0,83,0.00,,,0.00,SSEC-RIG,2013-06-16 04:45:00,
2013-06-15 23:50:00,72.8,67.4,29.86,WNW,287,10.7,-999.0,82,0.00,,,0.00,SSEC-RIG,2013-06-16 04:50:00,
2013-06-15 23:55:00,72.7,67.3,29.86,WNW,289,10.2,-999.0,82,0.00,,,0.00,SSEC-RIG,2013-06-16 04:55:00,